Time;durP1;ratioP1;P1;durP2;ratioP2;P2;SDS_P1;SDS_P2;PMS_P1;PMS_P2;Temp;Humidity;BMP_temperature;BMP_pressure;BME280_temperature;BME280_humidity;BME280_pressure;Samples;Min_cycle;Max_cycle;Signal;HPM_P1;HPM_P2
2020/12/25 00:01:56;;;;;;;9.73;3.55;;;4.70;99.90;;;;;;5027794;28;20020;-48
2020/12/25 00:04:21;;;;;;;5.10;3.70;;;4.70;99.90;;;;;;5027528;28;20096;-44
2020/12/25 00:06:47;;;;;;;10.77;3.67;;;4.60;99.90;;;;;;5027981;28;20108;-43
2020/12/25 00:09:13;;;;;;;9.60;3.58;;;4.70;99.90;;;;;;5027642;28;20037;-44
2020/12/25 00:11:39;;;;;;;8.50;3.22;;;4.60;99.90;;;;;;5027516;28;20021;-47
2020/12/25 00:14:05;;;;;;;7.35;3.53;;;4.60;99.90;;;;;;5031175;28;20419;-44
2020/12/25 00:16:32;;;;;;;9.93;3.10;;;4.60;99.90;;;;;;5037132;28;20037;-44
2020/12/25 00:18:58;;;;;;;9.40;2.95;;;4.60;99.90;;;;;;5025443;28;20017;-44
2020/12/25 00:21:24;;;;;;;14.32;3.60;;;4.60;99.90;;;;;;5026102;28;20467;-45
2020/12/25 00:23:50;;;;;;;16.88;3.58;;;4.60;99.90;;;;;;5026993;28;20013;-44
2020/12/25 00:26:26;;;;;;;4.88;2.67;;;4.60;99.90;;;;;;5024422;28;20040;-45
2020/12/25 00:28:53;;;;;;;5.63;2.50;;;4.50;99.90;;;;;;5026324;28;20014;-47
2020/12/25 00:31:33;;;;;;;5.55;2.60;;;4.60;99.90;;;;;;5032930;28;20038;-44
2020/12/25 00:34:02;;;;;;;6.73;3.17;;;4.60;99.90;;;;;;5033501;28;20490;-44
2020/12/25 00:36:32;;;;;;;8.20;2.97;;;4.50;99.90;;;;;;5030138;28;20379;-45
2020/12/25 00:38:59;;;;;;;4.90;2.90;;;4.50;99.90;;;;;;5031047;28;20028;-46
2020/12/25 00:41:26;;;;;;;12.45;3.17;;;4.50;99.90;;;;;;5030223;28;20445;-45
2020/12/25 00:43:52;;;;;;;5.88;2.67;;;4.50;99.90;;;;;;5030188;28;20026;-44
2020/12/25 00:46:18;;;;;;;6.15;2.78;;;4.50;99.90;;;;;;5028430;28;20108;-47
2020/12/25 00:48:44;;;;;;;4.93;2.90;;;4.50;99.90;;;;;;5030264;28;20104;-48
2020/12/25 00:51:13;;;;;;;8.00;2.63;;;4.50;99.90;;;;;;5028850;28;20100;-44
2020/12/25 00:53:39;;;;;;;6.25;2.30;;;4.50;99.90;;;;;;5029025;28;20079;-44
2020/12/25 00:56:05;;;;;;;8.63;3.10;;;4.50;99.90;;;;;;5028434;28;20029;-44
2020/12/25 00:58:31;;;;;;;8.63;3.28;;;4.50;99.90;;;;;;5029767;28;20024;-45
2020/12/25 01:00:56;;;;;;;8.90;2.97;;;4.50;99.90;;;;;;5030135;28;20205;-45
2020/12/25 01:03:22;;;;;;;9.13;2.47;;;4.50;99.90;;;;;;5029083;28;21016;-44
2020/12/25 01:05:47;;;;;;;9.68;2.90;;;4.50;99.90;;;;;;5029836;28;20025;-44
2020/12/25 01:08:13;;;;;;;8.50;2.95;;;4.50;99.90;;;;;;5028753;28;20025;-46
2020/12/25 01:10:38;;;;;;;9.70;4.30;;;4.50;99.90;;;;;;5029815;28;20026;-44
2020/12/25 01:13:04;;;;;;;6.82;2.75;;;4.40;99.90;;;;;;5029306;28;20032;-43
2020/12/25 01:15:29;;;;;;;7.85;2.53;;;4.40;99.90;;;;;;5029431;28;20509;-44
2020/12/25 01:17:55;;;;;;;3.83;2.65;;;4.40;99.90;;;;;;5030974;28;20024;-46
2020/12/25 01:20:21;;;;;;;4.93;3.08;;;4.40;99.90;;;;;;5029907;28;20025;-45
2020/12/25 01:22:46;;;;;;;6.88;3.05;;;4.40;99.90;;;;;;5029389;28;20026;-43
2020/12/25 01:25:12;;;;;;;12.48;3.13;;;4.30;99.90;;;;;;5029733;28;20025;-45
2020/12/25 01:27:38;;;;;;;7.53;3.05;;;4.30;99.90;;;;;;5030515;28;20509;-45
2020/12/25 01:30:04;;;;;;;5.93;2.60;;;4.30;99.90;;;;;;5039132;28;20120;-45
2020/12/25 01:32:34;;;;;;;6.07;3.20;;;4.30;99.90;;;;;;5045393;28;20029;-44
2020/12/25 01:35:05;;;;;;;5.28;2.95;;;4.30;99.90;;;;;;5038121;28;20060;-45
2020/12/25 01:37:31;;;;;;;6.57;2.45;;;4.30;99.90;;;;;;5031237;28;20033;-44
2020/12/25 01:39:56;;;;;;;7.35;1.98;;;4.30;99.90;;;;;;5043609;28;20044;-45
2020/12/25 01:42:22;;;;;;;7.45;2.45;;;4.30;99.90;;;;;;5037005;28;20486;-44
2020/12/25 01:44:48;;;;;;;6.93;2.00;;;4.30;99.90;;;;;;5030988;28;20113;-47
2020/12/25 01:47:17;;;;;;;3.15;1.83;;;4.30;99.90;;;;;;5045300;28;20394;-43
2020/12/25 01:49:47;;;;;;;5.85;1.70;;;4.30;99.90;;;;;;5032807;28;20034;-45
2020/12/25 01:52:13;;;;;;;5.63;2.25;;;4.30;99.90;;;;;;5030782;28;20107;-45
2020/12/25 01:54:45;;;;;;;10.20;2.75;;;4.30;99.90;;;;;;5037381;28;20052;-44
2020/12/25 01:57:13;;;;;;;9.55;2.40;;;4.30;99.90;;;;;;5048901;28;20037;-44
2020/12/25 01:59:39;;;;;;;5.13;2.60;;;4.30;99.90;;;;;;5048856;28;20444;-44
2020/12/25 02:02:06;;;;;;;8.27;2.30;;;4.30;99.90;;;;;;5049248;28;20078;-45
2020/12/25 02:04:32;;;;;;;6.93;2.30;;;4.30;99.90;;;;;;5050221;28;20108;-44
2020/12/25 02:06:57;;;;;;;6.38;2.28;;;4.30;99.90;;;;;;5042275;28;20109;-43
2020/12/25 02:09:23;;;;;;;5.18;1.98;;;4.30;99.90;;;;;;5039301;28;20044;-44
2020/12/25 02:11:49;;;;;;;9.55;1.75;;;4.20;99.90;;;;;;5036854;28;20035;-44
2020/12/25 02:14:15;;;;;;;7.35;2.38;;;4.20;99.90;;;;;;5028436;28;20041;-47
2020/12/25 02:16:40;;;;;;;4.35;1.58;;;4.20;99.90;;;;;;5039989;28;20020;-44
2020/12/25 02:19:08;;;;;;;3.90;1.70;;;4.20;99.90;;;;;;5047624;28;20108;-43
2020/12/25 02:21:33;;;;;;;5.70;1.70;;;4.20;99.90;;;;;;5030226;28;20056;-46
2020/12/25 02:23:59;;;;;;;6.45;1.75;;;4.20;99.90;;;;;;5029170;28;20018;-45
2020/12/25 02:26:25;;;;;;;8.93;2.00;;;4.20;99.90;;;;;;5037033;28;20024;-43
2020/12/25 02:28:51;;;;;;;2.95;1.60;;;4.20;99.90;;;;;;5045835;28;20206;-43
2020/12/25 02:31:16;;;;;;;11.43;2.20;;;4.10;99.90;;;;;;5049106;28;20087;-45
2020/12/25 02:33:42;;;;;;;8.05;1.77;;;4.20;99.90;;;;;;5046385;28;20034;-43
2020/12/25 02:36:07;;;;;;;7.28;1.65;;;4.20;99.90;;;;;;5046478;28;20453;-44
2020/12/25 02:38:33;;;;;;;5.63;2.17;;;4.10;99.90;;;;;;5042470;28;20083;-44
2020/12/25 02:41:00;;;;;;;5.30;1.63;;;4.10;99.90;;;;;;5030386;28;20017;-48
2020/12/25 02:43:25;;;;;;;4.85;1.50;;;4.10;99.90;;;;;;5028544;28;20525;-44
2020/12/25 02:45:52;;;;;;;3.40;1.95;;;4.10;99.90;;;;;;5033912;28;20184;-47
2020/12/25 02:48:17;;;;;;;4.80;2.08;;;4.10;99.90;;;;;;5049908;28;20025;-45
2020/12/25 02:50:43;;;;;;;8.32;2.45;;;4.10;99.90;;;;;;5048814;28;20041;-44
2020/12/25 02:53:09;;;;;;;3.83;2.50;;;4.10;99.90;;;;;;5048923;28;20067;-44
2020/12/25 02:55:34;;;;;;;8.45;2.20;;;4.10;99.90;;;;;;5048269;28;20128;-45
2020/12/25 02:58:00;;;;;;;4.97;2.00;;;4.10;99.90;;;;;;5049753;28;20111;-45
2020/12/25 03:00:25;;;;;;;8.07;1.40;;;4.10;99.90;;;;;;5044910;28;20258;-44
2020/12/25 03:02:51;;;;;;;6.22;1.83;;;4.10;99.90;;;;;;5031462;28;20032;-48
2020/12/25 03:05:17;;;;;;;3.80;1.80;;;4.00;99.90;;;;;;5028810;28;20057;-46
2020/12/25 03:07:42;;;;;;;8.65;2.80;;;4.00;99.90;;;;;;5043860;28;20021;-45
2020/12/25 03:10:08;;;;;;;9.15;1.95;;;4.10;99.90;;;;;;5035833;28;20029;-46
2020/12/25 03:12:34;;;;;;;4.38;1.25;;;4.10;99.90;;;;;;5028142;28;20018;-46
2020/12/25 03:14:59;;;;;;;6.22;2.00;;;4.10;99.90;;;;;;5035147;28;20069;-44
2020/12/25 03:17:25;;;;;;;3.42;1.77;;;4.10;99.90;;;;;;5045306;28;20379;-44
2020/12/25 03:19:50;;;;;;;7.00;1.60;;;4.10;99.90;;;;;;5047281;28;20569;-45
2020/12/25 03:22:16;;;;;;;5.05;1.40;;;4.10;99.90;;;;;;5048348;28;20021;-45
2020/12/25 03:24:42;;;;;;;4.53;1.63;;;4.10;99.90;;;;;;5048521;28;20027;-45
2020/12/25 03:27:07;;;;;;;4.93;1.58;;;4.20;99.90;;;;;;5047596;28;20394;-45
2020/12/25 03:29:33;;;;;;;5.00;1.23;;;4.20;99.90;;;;;;5048601;28;20087;-47
2020/12/25 03:31:59;;;;;;;4.25;1.48;;;4.10;99.90;;;;;;5038123;28;20040;-45
2020/12/25 03:34:25;;;;;;;5.03;1.23;;;4.10;99.90;;;;;;5030670;28;20025;-43
2020/12/25 03:36:52;;;;;;;3.80;1.17;;;4.10;99.90;;;;;;5036484;28;20040;-47
2020/12/25 03:39:18;;;;;;;3.70;1.20;;;4.10;99.90;;;;;;5031419;28;20071;-46
2020/12/25 03:41:45;;;;;;;2.42;1.20;;;4.10;99.90;;;;;;5044287;28;20287;-43
2020/12/25 03:44:11;;;;;;;3.35;1.10;;;4.10;99.90;;;;;;5038439;28;20037;-45
2020/12/25 03:46:37;;;;;;;3.60;1.08;;;4.10;99.90;;;;;;5040606;28;20025;-45
2020/12/25 03:49:04;;;;;;;10.05;1.83;;;4.10;99.90;;;;;;5038287;28;20321;-44
2020/12/25 03:51:30;;;;;;;4.82;1.73;;;4.10;99.90;;;;;;5047680;28;20029;-44
2020/12/25 03:54:01;;;;;;;6.90;2.72;;;4.10;99.90;;;;;;5046500;28;20032;-47
2020/12/25 03:56:26;;;;;;;6.45;1.30;;;4.10;99.90;;;;;;5039559;28;20033;-43
2020/12/25 03:58:58;;;;;;;6.75;1.52;;;4.00;99.90;;;;;;5028033;28;20032;-47
2020/12/25 04:01:23;;;;;;;7.32;1.52;;;4.00;99.90;;;;;;5029459;28;20021;-44
2020/12/25 04:03:54;;;;;;;2.50;1.50;;;4.00;99.90;;;;;;5027026;28;20036;-46
2020/12/25 04:06:19;;;;;;;2.30;1.42;;;4.00;99.90;;;;;;5026448;28;20032;-44
2020/12/25 04:08:48;;;;;;;5.28;1.73;;;4.00;99.90;;;;;;5033276;28;20036;-44
2020/12/25 04:11:14;;;;;;;4.75;2.00;;;4.00;99.90;;;;;;5025966;28;20618;-47
2020/12/25 04:13:47;;;;;;;4.72;2.08;;;4.00;99.90;;;;;;5026944;28;20064;-44
2020/12/25 04:16:18;;;;;;;3.35;2.00;;;4.00;99.90;;;;;;5045032;28;20175;-44
2020/12/25 04:18:44;;;;;;;7.10;1.92;;;3.90;99.90;;;;;;5047085;28;20041;-44
2020/12/25 04:21:15;;;;;;;7.35;2.30;;;3.90;99.90;;;;;;5046773;28;20462;-44
2020/12/25 04:23:44;;;;;;;5.95;2.20;;;3.90;99.90;;;;;;5047962;28;20333;-45
2020/12/25 04:26:10;;;;;;;5.00;1.73;;;3.80;99.90;;;;;;5030624;28;20025;-44
2020/12/25 04:28:35;;;;;;;3.13;1.80;;;3.80;99.90;;;;;;5027786;28;20105;-43
2020/12/25 04:31:06;;;;;;;6.28;2.03;;;3.80;99.90;;;;;;5040337;28;20119;-43
2020/12/25 04:33:36;;;;;;;7.35;2.05;;;3.80;99.90;;;;;;5047579;28;20033;-44
2020/12/25 04:36:02;;;;;;;14.77;2.20;;;3.80;99.90;;;;;;5043402;28;20025;-44
2020/12/25 04:38:28;;;;;;;12.70;2.60;;;3.70;99.90;;;;;;5035793;28;20503;-44
2020/12/25 04:40:53;;;;;;;5.93;1.85;;;3.70;99.90;;;;;;5044618;28;20083;-44
2020/12/25 04:43:19;;;;;;;5.20;1.95;;;3.70;99.90;;;;;;5035943;28;20394;-46
2020/12/25 04:45:45;;;;;;;4.93;2.28;;;3.70;99.90;;;;;;5030622;28;20025;-45
2020/12/25 04:48:12;;;;;;;5.20;2.60;;;3.70;99.90;;;;;;5028846;28;20116;-47
2020/12/25 04:50:38;;;;;;;5.10;1.85;;;3.70;99.90;;;;;;5026214;28;20028;-43
2020/12/25 04:53:03;;;;;;;7.88;3.08;;;3.70;99.90;;;;;;5033505;28;20403;-43
2020/12/25 04:55:29;;;;;;;12.05;3.55;;;3.70;99.90;;;;;;5034327;28;20029;-44
2020/12/25 04:57:58;;;;;;;8.00;2.63;;;3.70;99.90;;;;;;5039649;28;20060;-46
2020/12/25 05:00:27;;;;;;;11.27;2.90;;;3.70;99.90;;;;;;5047021;28;20603;-44
2020/12/25 05:02:52;;;;;;;5.97;2.58;;;3.70;99.90;;;;;;5046109;28;20124;-43
2020/12/25 05:05:26;;;;;;;6.68;2.33;;;3.70;99.90;;;;;;5046701;28;20107;-46
2020/12/25 05:07:53;;;;;;;9.77;2.65;;;3.70;99.90;;;;;;5046017;28;20029;-43
2020/12/25 05:10:18;;;;;;;4.72;2.60;;;3.70;99.90;;;;;;5032241;28;20141;-44
2020/12/25 05:12:46;;;;;;;4.25;2.17;;;3.70;99.90;;;;;;5027015;28;20116;-44
2020/12/25 05:15:14;;;;;;;5.68;2.60;;;3.70;99.90;;;;;;5037755;28;20549;-44
2020/12/25 05:17:41;;;;;;;7.75;2.80;;;3.60;99.90;;;;;;5032623;28;20025;-44
2020/12/25 05:20:07;;;;;;;7.32;2.63;;;3.60;99.90;;;;;;5029833;28;20079;-47
2020/12/25 05:22:34;;;;;;;8.27;2.83;;;3.60;99.90;;;;;;5038365;28;20330;-44
2020/12/25 05:25:03;;;;;;;9.02;2.97;;;3.60;99.90;;;;;;5048091;28;20116;-46
2020/12/25 05:27:29;;;;;;;9.15;2.70;;;3.60;99.90;;;;;;5049314;28;20017;-43
2020/12/25 05:30:00;;;;;;;7.82;2.13;;;3.60;99.90;;;;;;5050399;28;20059;-48
2020/12/25 05:32:32;;;;;;;5.88;2.25;;;3.60;99.90;;;;;;5033062;28;20036;-45
2020/12/25 05:34:58;;;;;;;6.65;2.33;;;3.60;99.90;;;;;;5030283;28;20037;-44
2020/12/25 05:37:35;;;;;;;5.57;2.65;;;3.60;99.90;;;;;;5038923;28;20025;-45
2020/12/25 05:40:06;;;;;;;3.80;2.53;;;3.60;99.90;;;;;;5043262;28;20077;-45
2020/12/25 05:42:44;;;;;;;6.43;2.42;;;3.60;99.90;;;;;;5037968;28;20026;-46
2020/12/25 05:45:10;;;;;;;11.05;2.63;;;3.60;99.90;;;;;;5040257;28;20761;-44
2020/12/25 05:47:36;;;;;;;8.05;2.78;;;3.60;99.90;;;;;;5049761;28;20404;-43
2020/12/25 05:50:03;;;;;;;6.47;2.35;;;3.60;99.90;;;;;;5039723;28;20029;-45
2020/12/25 05:52:28;;;;;;;8.18;1.90;;;3.60;99.90;;;;;;5029811;28;20030;-44
2020/12/25 05:55:00;;;;;;;3.50;1.98;;;3.50;99.90;;;;;;5036825;28;20024;-43
2020/12/25 05:57:29;;;;;;;6.20;2.40;;;3.60;99.90;;;;;;5052924;28;20044;-43
2020/12/25 06:00:01;;;;;;;7.30;2.33;;;3.60;99.90;;;;;;5034530;28;20032;-43
2020/12/25 06:02:28;;;;;;;6.07;2.25;;;3.60;99.90;;;;;;5029167;28;20021;-44
2020/12/25 06:04:56;;;;;;;3.97;2.05;;;3.60;99.90;;;;;;5028936;28;20021;-45
2020/12/25 06:07:27;;;;;;;5.82;2.40;;;3.70;99.90;;;;;;5028604;28;20404;-46
2020/12/25 06:09:58;;;;;;;4.72;2.22;;;3.60;99.90;;;;;;5036598;28;20668;-45
2020/12/25 06:12:38;;;;;;;4.03;2.05;;;3.60;99.90;;;;;;5042389;28;20505;-44
2020/12/25 06:15:06;;;;;;;5.00;1.90;;;3.60;99.90;;;;;;5029234;28;20048;-44
2020/12/25 06:17:36;;;;;;;4.82;2.22;;;3.60;99.90;;;;;;5031899;28;20406;-47
2020/12/25 06:20:03;;;;;;;8.10;2.08;;;3.60;99.90;;;;;;5033504;28;20021;-44
2020/12/25 06:22:36;;;;;;;6.55;1.52;;;3.60;99.90;;;;;;5037435;28;20305;-44
2020/12/25 06:25:09;;;;;;;4.35;2.15;;;3.60;99.90;;;;;;5041121;28;20052;-44
2020/12/25 06:27:36;;;;;;;4.00;1.77;;;3.60;99.90;;;;;;5028793;28;20022;-44
2020/12/25 06:30:03;;;;;;;5.55;2.03;;;3.60;99.90;;;;;;5027508;28;20030;-44
2020/12/25 06:32:32;;;;;;;5.88;2.28;;;3.60;99.90;;;;;;5026985;28;20266;-45
2020/12/25 06:34:59;;;;;;;5.32;1.95;;;3.60;99.90;;;;;;5030982;28;20571;-44
2020/12/25 06:37:29;;;;;;;4.78;2.08;;;3.60;99.90;;;;;;5044889;28;20090;-47
2020/12/25 06:40:05;;;;;;;8.38;2.67;;;3.60;99.90;;;;;;5034254;28;20034;-43
2020/12/25 06:42:34;;;;;;;5.75;2.60;;;3.50;99.90;;;;;;5036250;28;20052;-46
2020/12/25 06:45:01;;;;;;;3.17;2.30;;;3.60;99.90;;;;;;5036342;28;20024;-44
2020/12/25 06:47:38;;;;;;;3.03;1.70;;;3.50;99.90;;;;;;5036657;28;20033;-43
2020/12/25 06:50:12;;;;;;;5.28;2.38;;;3.50;99.90;;;;;;5038043;28;20045;-45
2020/12/25 06:52:55;;;;;;;5.45;2.40;;;3.50;99.90;;;;;;5038553;28;20041;-43
2020/12/25 06:55:21;;;;;;;7.45;2.47;;;3.50;99.90;;;;;;5035805;28;20037;-43
2020/12/25 06:57:53;;;;;;;4.55;2.35;;;3.50;99.90;;;;;;5040899;28;20082;-47
2020/12/25 07:00:20;;;;;;;5.15;2.45;;;3.50;99.90;;;;;;5030483;28;20033;-44
2020/12/25 07:02:47;;;;;;;6.20;2.03;;;3.50;99.90;;;;;;5029142;28;20017;-45
2020/12/25 07:05:12;;;;;;;6.75;2.45;;;3.50;99.90;;;;;;5028003;28;20534;-43
2020/12/25 07:07:38;;;;;;;3.03;2.30;;;3.40;99.90;;;;;;5039949;28;20107;-44
2020/12/25 07:10:12;;;;;;;3.13;2.40;;;3.50;99.90;;;;;;5039211;28;20149;-44
2020/12/25 07:12:38;;;;;;;4.35;2.90;;;3.50;99.90;;;;;;5036821;28;20029;-44
2020/12/25 07:15:05;;;;;;;3.72;2.63;;;3.40;99.90;;;;;;5028600;28;20501;-44
2020/12/25 07:17:31;;;;;;;3.53;2.22;;;3.40;99.90;;;;;;5034710;28;20029;-46
2020/12/25 07:19:56;;;;;;;3.10;2.80;;;3.40;99.90;;;;;;5029067;28;20013;-44
2020/12/25 07:22:22;;;;;;;6.93;2.60;;;3.40;99.90;;;;;;5028886;28;20116;-44
2020/12/25 07:24:49;;;;;;;5.28;3.00;;;3.40;99.90;;;;;;5036554;28;20017;-43
2020/12/25 07:27:14;;;;;;;5.68;2.80;;;3.40;99.90;;;;;;5031339;28;20608;-45
2020/12/25 07:29:41;;;;;;;5.47;2.42;;;3.40;99.90;;;;;;5048352;28;20028;-47
2020/12/25 07:32:09;;;;;;;3.70;2.50;;;3.40;99.90;;;;;;5048840;28;20048;-47
2020/12/25 07:34:35;;;;;;;3.55;2.30;;;3.40;99.90;;;;;;5046652;28;20525;-43
2020/12/25 07:37:00;;;;;;;5.00;2.33;;;3.40;99.90;;;;;;5046281;28;20025;-43
2020/12/25 07:39:28;;;;;;;8.55;2.20;;;3.40;99.90;;;;;;5036095;28;21506;-45
2020/12/25 07:41:54;;;;;;;4.85;2.10;;;3.30;99.90;;;;;;5034627;28;20061;-43
2020/12/25 07:44:21;;;;;;;5.57;2.15;;;3.30;99.90;;;;;;5027053;28;20226;-45
2020/12/25 07:46:47;;;;;;;5.15;2.53;;;3.40;99.90;;;;;;5028802;28;20057;-44
2020/12/25 07:49:12;;;;;;;6.95;2.47;;;3.30;99.90;;;;;;5027630;28;20073;-43
2020/12/25 07:51:38;;;;;;;4.53;2.80;;;3.30;99.90;;;;;;5030015;28;20110;-43
2020/12/25 07:54:05;;;;;;;6.07;2.45;;;3.30;99.90;;;;;;5035969;28;20060;-44
2020/12/25 07:56:35;;;;;;;6.03;2.22;;;3.30;99.90;;;;;;5035450;28;20021;-43
2020/12/25 07:59:02;;;;;;;7.10;2.40;;;3.40;99.90;;;;;;5037594;28;20044;-44
2020/12/25 08:01:33;;;;;;;4.78;2.47;;;3.40;99.90;;;;;;5035857;28;20029;-45
2020/12/25 08:04:03;;;;;;;6.57;2.38;;;3.30;99.90;;;;;;5038544;28;20117;-44
2020/12/25 08:06:31;;;;;;;8.82;2.40;;;3.30;99.90;;;;;;5034464;28;20464;-45
2020/12/25 08:09:00;;;;;;;3.08;2.15;;;3.30;99.90;;;;;;5028735;28;20041;-44
2020/12/25 08:11:26;;;;;;;3.70;1.90;;;3.40;99.90;;;;;;5026939;28;20331;-45
2020/12/25 08:13:55;;;;;;;5.45;2.10;;;3.30;99.90;;;;;;5028422;28;20083;-45
2020/12/25 08:16:21;;;;;;;6.50;2.50;;;3.40;99.90;;;;;;5028141;28;20064;-44
2020/12/25 08:18:48;;;;;;;7.00;2.42;;;3.40;99.90;;;;;;5036644;28;20146;-45
2020/12/25 08:21:14;;;;;;;6.20;2.15;;;3.30;99.90;;;;;;5028673;28;20017;-45
2020/12/25 08:23:40;;;;;;;5.85;2.53;;;3.30;99.90;;;;;;5034993;28;20021;-44
2020/12/25 08:26:07;;;;;;;4.10;2.20;;;3.30;99.90;;;;;;5034701;28;20032;-47
2020/12/25 08:28:33;;;;;;;13.85;5.60;;;3.30;99.90;;;;;;5033067;28;20145;-46
2020/12/25 08:31:15;;;;;;;10.15;3.85;;;3.40;99.90;;;;;;5035005;28;20511;-44
2020/12/25 08:33:50;;;;;;;10.38;3.13;;;3.30;99.90;;;;;;5036092;28;20018;-46
2020/12/25 08:36:16;;;;;;;5.00;2.97;;;3.30;99.90;;;;;;5032484;28;20040;-45
2020/12/25 08:38:42;;;;;;;13.27;4.20;;;3.30;99.90;;;;;;5034107;28;20197;-45
2020/12/25 08:41:08;;;;;;;9.70;3.95;;;3.30;99.90;;;;;;5036184;28;20026;-47
2020/12/25 08:43:39;;;;;;;9.90;4.30;;;3.30;99.90;;;;;;5030650;28;20040;-45
2020/12/25 08:46:05;;;;;;;14.95;4.78;;;3.30;99.90;;;;;;5026977;28;20024;-44
2020/12/25 08:48:32;;;;;;;9.27;4.95;;;3.30;99.90;;;;;;5033916;28;20030;-44
2020/12/25 08:51:12;;;;;;;11.30;5.47;;;3.40;99.90;;;;;;5029037;28;20025;-45
2020/12/25 08:53:38;;;;;;;10.63;5.20;;;3.30;99.90;;;;;;5040746;28;20024;-44
2020/12/25 08:56:15;;;;;;;15.32;5.15;;;3.30;99.90;;;;;;5050990;28;20074;-44
2020/12/25 08:58:53;;;;;;;9.68;5.20;;;3.30;99.90;;;;;;5040620;28;20025;-44
2020/12/25 09:01:19;;;;;;;9.75;5.10;;;3.30;99.90;;;;;;5029232;28;20033;-43
2020/12/25 09:03:44;;;;;;;13.15;5.22;;;3.30;99.90;;;;;;5038518;28;20269;-44
2020/12/25 09:06:10;;;;;;;9.27;5.13;;;3.30;99.90;;;;;;5050795;28;20023;-46
2020/12/25 09:08:37;;;;;;;13.75;5.60;;;3.30;99.90;;;;;;5043435;28;20051;-43
2020/12/25 09:11:24;;;;;;;10.52;5.40;;;3.30;99.90;;;;;;5029545;28;20125;-43
2020/12/25 09:13:51;;;;;;;14.88;5.15;;;3.30;99.90;;;;;;5030194;28;20021;-44
2020/12/25 09:16:17;;;;;;;9.82;5.18;;;3.30;99.90;;;;;;5042355;28;20029;-44
2020/12/25 09:18:42;;;;;;;9.75;5.63;;;3.30;99.90;;;;;;5048947;28;20036;-44
2020/12/25 09:21:11;;;;;;;10.15;5.90;;;3.30;99.90;;;;;;5038495;28;20029;-44
2020/12/25 09:23:38;;;;;;;20.95;5.97;;;3.30;99.90;;;;;;5037309;28;20437;-44
2020/12/25 09:26:08;;;;;;;11.63;5.13;;;3.30;99.90;;;;;;5047997;28;20048;-45
2020/12/25 09:28:34;;;;;;;20.70;6.43;;;3.30;99.90;;;;;;5049148;28;20097;-45
2020/12/25 09:30:59;;;;;;;11.63;5.68;;;3.30;99.90;;;;;;5050831;28;20029;-46
2020/12/25 09:33:25;;;;;;;15.25;5.72;;;3.30;99.90;;;;;;5048283;28;20295;-45
2020/12/25 09:35:52;;;;;;;13.65;5.43;;;3.40;99.90;;;;;;5050343;28;20032;-45
2020/12/25 09:38:18;;;;;;;10.65;4.57;;;3.40;99.90;;;;;;5050278;28;20440;-46
2020/12/25 09:40:46;;;;;;;13.35;5.68;;;3.40;99.90;;;;;;5049859;28;20025;-45
2020/12/25 09:43:12;;;;;;;13.20;5.35;;;3.40;99.90;;;;;;5045058;28;20036;-48
2020/12/25 09:45:37;;;;;;;12.80;5.40;;;3.30;99.90;;;;;;5032573;28;20025;-46
2020/12/25 09:48:03;;;;;;;7.50;4.20;;;3.30;99.90;;;;;;5050392;28;20091;-47
2020/12/25 09:50:29;;;;;;;13.02;4.85;;;3.30;99.90;;;;;;5049354;28;20021;-45
2020/12/25 09:52:54;;;;;;;11.88;5.90;;;3.20;99.90;;;;;;5049847;28;20064;-46
2020/12/25 09:55:20;;;;;;;12.82;5.45;;;3.30;99.90;;;;;;5038249;28;20030;-45
2020/12/25 09:57:45;;;;;;;20.50;5.38;;;3.30;99.90;;;;;;5033372;28;20032;-43
2020/12/25 10:00:13;;;;;;;10.20;4.47;;;3.50;99.90;;;;;;5037447;28;20283;-42
2020/12/25 10:02:39;;;;;;;17.48;5.05;;;3.60;99.90;;;;;;5039201;28;20110;-43
2020/12/25 10:05:06;;;;;;;12.57;4.50;;;3.80;99.90;;;;;;5035477;28;20083;-44
2020/12/25 10:07:32;;;;;;;14.32;4.90;;;3.90;99.90;;;;;;5036439;28;20025;-43
2020/12/25 10:09:58;;;;;;;18.48;5.97;;;4.00;99.90;;;;;;5036124;28;20401;-44
2020/12/25 10:12:24;;;;;;;12.13;4.65;;;4.00;99.90;;;;;;5035593;28;20021;-45
2020/12/25 10:14:50;;;;;;;17.38;5.28;;;3.90;99.90;;;;;;5028761;28;20031;-43
2020/12/25 10:17:15;;;;;;;12.05;5.32;;;3.70;99.90;;;;;;5028692;28;20072;-47
2020/12/25 10:19:41;;;;;;;13.25;4.82;;;3.50;99.90;;;;;;5026575;28;20439;-43
2020/12/25 10:22:07;;;;;;;15.38;5.65;;;3.60;99.90;;;;;;5029208;28;20029;-43
2020/12/25 10:24:33;;;;;;;8.60;5.22;;;3.60;99.90;;;;;;5029045;28;20021;-44
2020/12/25 10:27:00;;;;;;;18.35;6.32;;;3.70;99.90;;;;;;5034971;28;20032;-44
2020/12/25 10:29:26;;;;;;;10.43;5.75;;;3.60;99.90;;;;;;5038067;28;20095;-43
2020/12/25 10:31:51;;;;;;;13.23;5.45;;;3.60;99.90;;;;;;5029005;28;20230;-44
2020/12/25 10:34:17;;;;;;;10.40;6.35;;;3.70;99.90;;;;;;5029202;28;20067;-46
2020/12/25 10:36:43;;;;;;;16.60;6.95;;;3.70;99.90;;;;;;5029452;28;20261;-44
2020/12/25 10:39:10;;;;;;;11.32;5.85;;;3.70;99.90;;;;;;5037374;28;20083;-44
2020/12/25 10:41:36;;;;;;;13.65;6.15;;;3.80;99.90;;;;;;5039697;28;20282;-43
2020/12/25 10:44:02;;;;;;;12.60;6.15;;;3.90;99.90;;;;;;5039942;28;20025;-45
2020/12/25 10:46:28;;;;;;;17.20;7.65;;;3.90;99.90;;;;;;5031988;28;20029;-46
2020/12/25 10:48:53;;;;;;;10.88;5.13;;;4.40;99.90;;;;;;5034835;28;20626;-43
2020/12/25 10:51:19;;;;;;;10.40;5.18;;;5.10;99.90;;;;;;5036868;28;20068;-44
2020/12/25 10:53:46;;;;;;;8.20;4.80;;;6.20;99.90;;;;;;5039311;28;20032;-44
2020/12/25 10:56:26;;;;;;;7.82;4.80;;;7.40;99.90;;;;;;5033981;28;20467;-45
2020/12/25 10:58:52;;;;;;;8.38;4.20;;;8.30;99.90;;;;;;5036529;28;20037;-44
2020/12/25 11:01:23;;;;;;;6.88;4.40;;;8.70;96.40;;;;;;5032549;28;20022;-48
2020/12/25 11:03:48;;;;;;;9.45;4.57;;;8.40;98.10;;;;;;5028118;28;20014;-45
2020/12/25 11:06:14;;;;;;;10.77;4.20;;;7.90;97.90;;;;;;5027339;28;20080;-44
2020/12/25 11:08:39;;;;;;;8.70;4.60;;;7.10;99.90;;;;;;5028063;28;20033;-44
2020/12/25 11:11:05;;;;;;;8.70;4.40;;;6.40;99.90;;;;;;5029978;28;20469;-44
2020/12/25 11:13:33;;;;;;;6.68;4.57;;;5.70;99.90;;;;;;5026532;28;20511;-44
2020/12/25 11:15:58;;;;;;;7.97;4.55;;;5.30;99.90;;;;;;5025391;28;20437;-46
2020/12/25 11:18:24;;;;;;;8.77;4.57;;;5.00;99.90;;;;;;5026301;28;20310;-45
2020/12/25 11:20:49;;;;;;;9.27;5.15;;;4.80;99.90;;;;;;5026178;28;20060;-44
2020/12/25 11:23:15;;;;;;;10.85;5.20;;;4.60;99.90;;;;;;5027330;28;20030;-44
2020/12/25 11:25:40;;;;;;;9.68;4.65;;;4.50;99.90;;;;;;5027697;28;20021;-43
2020/12/25 11:28:06;;;;;;;12.18;5.53;;;4.40;99.90;;;;;;5027419;28;20643;-44
2020/12/25 11:30:32;;;;;;;9.07;5.05;;;4.40;99.90;;;;;;5026836;28;20083;-44
2020/12/25 11:32:58;;;;;;;10.80;5.57;;;4.40;99.90;;;;;;5030408;28;20026;-47
2020/12/25 11:35:23;;;;;;;7.75;4.63;;;4.40;99.90;;;;;;5025329;28;20029;-44
2020/12/25 11:37:48;;;;;;;12.23;5.55;;;4.40;99.90;;;;;;5027586;28;20037;-44
2020/12/25 11:40:15;;;;;;;10.32;4.80;;;4.40;99.90;;;;;;5026744;28;20029;-44
2020/12/25 11:42:40;;;;;;;11.70;5.10;;;4.30;99.90;;;;;;5029481;28;20029;-43
2020/12/25 11:45:06;;;;;;;13.00;4.90;;;4.20;99.90;;;;;;5037574;28;20033;-46
2020/12/25 11:47:32;;;;;;;16.65;4.60;;;4.10;99.90;;;;;;5031504;28;20044;-43
2020/12/25 11:49:58;;;;;;;8.48;4.72;;;4.10;99.90;;;;;;5027422;28;20332;-44
2020/12/25 11:52:24;;;;;;;13.57;4.95;;;4.10;99.90;;;;;;5026091;28;20036;-46
2020/12/25 11:54:50;;;;;;;11.38;4.65;;;4.10;99.90;;;;;;5026950;28;20032;-43
2020/12/25 11:57:16;;;;;;;7.90;4.50;;;4.00;99.90;;;;;;5027719;28;20029;-44
2020/12/25 11:59:42;;;;;;;13.90;4.53;;;4.00;99.90;;;;;;5047002;28;20112;-44
2020/12/25 12:02:08;;;;;;;6.38;3.95;;;3.90;99.90;;;;;;5048458;28;20055;-45
2020/12/25 12:04:33;;;;;;;9.63;4.45;;;3.90;99.90;;;;;;5047467;28;20406;-45
2020/12/25 12:06:59;;;;;;;13.93;4.88;;;3.90;99.90;;;;;;5048584;28;20039;-44
2020/12/25 12:09:25;;;;;;;11.65;5.05;;;3.90;99.90;;;;;;5042884;28;20040;-44
2020/12/25 12:11:50;;;;;;;10.23;3.95;;;4.00;99.90;;;;;;5033704;28;20033;-44
2020/12/25 12:14:16;;;;;;;8.68;4.60;;;4.00;99.90;;;;;;5038257;28;20111;-44
2020/12/25 12:16:41;;;;;;;8.65;4.30;;;4.00;99.90;;;;;;5035491;28;20055;-44
2020/12/25 12:19:08;;;;;;;11.27;4.22;;;4.00;99.90;;;;;;5039211;28;20412;-47
2020/12/25 12:21:33;;;;;;;5.90;3.88;;;4.10;99.90;;;;;;5047488;28;20589;-45
2020/12/25 12:23:59;;;;;;;13.10;4.72;;;4.00;99.90;;;;;;5048311;28;20125;-44
2020/12/25 12:26:24;;;;;;;8.52;4.57;;;4.10;99.90;;;;;;5040041;28;20441;-43
2020/12/25 12:28:50;;;;;;;9.13;3.58;;;4.10;99.90;;;;;;5034122;28;20014;-44
2020/12/25 12:31:16;;;;;;;10.10;3.75;;;4.10;99.90;;;;;;5033869;28;20033;-44
2020/12/25 12:33:41;;;;;;;5.00;3.10;;;4.20;99.90;;;;;;5034525;28;20025;-43
2020/12/25 12:36:08;;;;;;;6.30;3.75;;;4.30;99.90;;;;;;5036356;28;21408;-43
2020/12/25 12:38:34;;;;;;;6.55;3.45;;;4.40;99.90;;;;;;5040805;28;20068;-43
2020/12/25 12:41:01;;;;;;;7.82;3.17;;;4.50;99.90;;;;;;5034261;28;20252;-44
2020/12/25 12:43:27;;;;;;;4.78;3.03;;;4.60;99.90;;;;;;5032090;28;20103;-44
2020/12/25 12:45:52;;;;;;;8.25;3.35;;;4.70;99.90;;;;;;5043600;28;20426;-44
2020/12/25 12:48:18;;;;;;;6.15;2.90;;;4.60;99.90;;;;;;5053448;28;20025;-44
2020/12/25 12:50:44;;;;;;;7.97;2.97;;;4.60;99.90;;;;;;5054428;28;20025;-43
2020/12/25 12:53:09;;;;;;;10.68;3.20;;;4.60;99.90;;;;;;5054469;28;20520;-46
2020/12/25 12:55:35;;;;;;;4.85;2.95;;;4.60;99.90;;;;;;5040660;28;20033;-44